Aviation Digital Data Service (ADDS)

Output produced by TAFs form (0356 UTC 22 August 2014)
found at http://aviationweather.gov/adds/tafs/
 
KELP 220302Z 2203/2224 17010G18KT P6SM VCSH SCT070 BKN150 
     TEMPO 2203/2207 P6SM -SHRA SCT030 BKN060 
     FM220900 28011KT P6SM -SHRA FEW015 BKN040 OVC070 
     TEMPO 2209/2212 5SM -SHRA 
     FM221700 28006KT P6SM SCT040 BKN070 OVC110